sensor_id;sensor_type;location;lat;lon;timestamp;temperature;humidity
262;DHT22;114;48.260;10.988;2022-10-01T00:00:26;7.20;99.90
262;DHT22;114;48.260;10.988;2022-10-01T00:02:52;7.10;99.90
262;DHT22;114;48.260;10.988;2022-10-01T00:05:19;7.20;99.90
262;DHT22;114;48.260;10.988;2022-10-01T00:07:45;7.20;99.90
262;DHT22;114;48.260;10.988;2022-10-01T00:10:13;7.30;99.90
262;DHT22;114;48.260;10.988;2022-10-01T00:12:44;7.30;99.90
262;DHT22;114;48.260;10.988;2022-10-01T00:15:12;7.40;99.90
262;DHT22;114;48.260;10.988;2022-10-01T00:17:38;7.40;99.90
262;DHT22;114;48.260;10.988;2022-10-01T00:20:05;7.40;99.90
262;DHT22;114;48.260;10.988;2022-10-01T00:22:32;7.40;99.90
262;DHT22;114;48.260;10.988;2022-10-01T00:24:59;7.40;99.90
262;DHT22;114;48.260;10.988;2022-10-01T00:27:26;7.40;99.90
262;DHT22;114;48.260;10.988;2022-10-01T00:29:52;7.40;99.90
262;DHT22;114;48.260;10.988;2022-10-01T00:32:21;7.40;99.90
262;DHT22;114;48.260;10.988;2022-10-01T00:34:47;7.50;99.90
262;DHT22;114;48.260;10.988;2022-10-01T00:37:14;7.60;99.90
262;DHT22;114;48.260;10.988;2022-10-01T00:39:42;7.60;99.90
262;DHT22;114;48.260;10.988;2022-10-01T00:42:24;7.60;99.90
262;DHT22;114;48.260;10.988;2022-10-01T00:44:51;7.60;99.90
262;DHT22;114;48.260;10.988;2022-10-01T00:47:26;7.50;99.90
262;DHT22;114;48.260;10.988;2022-10-01T00:50:03;7.50;99.90
262;DHT22;114;48.260;10.988;2022-10-01T00:52:33;7.50;99.90
262;DHT22;114;48.260;10.988;2022-10-01T00:57:34;7.30;99.90
262;DHT22;114;48.260;10.988;2022-10-01T01:00:04;7.20;99.90
262;DHT22;114;48.260;10.988;2022-10-01T01:02:30;7.20;99.90
262;DHT22;114;48.260;10.988;2022-10-01T01:04:56;7.10;99.90
262;DHT22;114;48.260;10.988;2022-10-01T01:07:23;7.10;99.90
262;DHT22;114;48.260;10.988;2022-10-01T01:09:50;7.00;99.90
262;DHT22;114;48.260;10.988;2022-10-01T01:13:03;6.90;99.90
262;DHT22;114;48.260;10.988;2022-10-01T01:16:32;7.00;99.90
262;DHT22;114;48.260;10.988;2022-10-01T01:18:51;6.90;99.90
262;DHT22;114;48.260;10.988;2022-10-01T01:27:30;7.40;99.90
262;DHT22;114;48.260;10.988;2022-10-01T01:32:54;7.60;99.90
262;DHT22;114;48.260;10.988;2022-10-01T01:35:34;7.60;99.90
262;DHT22;114;48.260;10.988;2022-10-01T01:38:08;7.60;99.90
262;DHT22;114;48.260;10.988;2022-10-01T01:40:36;7.60;99.90
262;DHT22;114;48.260;10.988;2022-10-01T01:43:07;7.60;99.90
262;DHT22;114;48.260;10.988;2022-10-01T01:45:36;7.50;99.90
262;DHT22;114;48.260;10.988;2022-10-01T01:48:06;7.60;99.90
262;DHT22;114;48.260;10.988;2022-10-01T01:50:41;7.60;99.90
262;DHT22;114;48.260;10.988;2022-10-01T01:53:07;7.50;99.90
262;DHT22;114;48.260;10.988;2022-10-01T01:55:34;7.50;99.90
262;DHT22;114;48.260;10.988;2022-10-01T01:58:02;7.50;99.90
262;DHT22;114;48.260;10.988;2022-10-01T02:00:28;7.50;99.90
262;DHT22;114;48.260;10.988;2022-10-01T02:02:55;7.40;99.90
262;DHT22;114;48.260;10.988;2022-10-01T02:05:27;7.40;99.90
262;DHT22;114;48.260;10.988;2022-10-01T02:13:24;7.40;99.90
262;DHT22;114;48.260;10.988;2022-10-01T02:16:03;7.30;99.90
262;DHT22;114;48.260;10.988;2022-10-01T02:21:33;7.10;99.90
262;DHT22;114;48.260;10.988;2022-10-01T02:24:10;7.00;99.90
262;DHT22;114;48.260;10.988;2022-10-01T02:26:42;6.90;99.90
262;DHT22;114;48.260;10.988;2022-10-01T02:29:11;6.90;99.90
262;DHT22;114;48.260;10.988;2022-10-01T02:31:40;6.80;99.90
262;DHT22;114;48.260;10.988;2022-10-01T02:34:07;6.70;99.90
262;DHT22;114;48.260;10.988;2022-10-01T02:36:35;6.60;99.90
262;DHT22;114;48.260;10.988;2022-10-01T02:39:03;6.50;99.90
262;DHT22;114;48.260;10.988;2022-10-01T02:41:34;6.40;99.90
262;DHT22;114;48.260;10.988;2022-10-01T02:44:08;6.40;99.90
262;DHT22;114;48.260;10.988;2022-10-01T02:46:50;6.30;99.90
262;DHT22;114;48.260;10.988;2022-10-01T02:49:16;6.30;99.90
262;DHT22;114;48.260;10.988;2022-10-01T02:54:18;6.20;99.90
262;DHT22;114;48.260;10.988;2022-10-01T02:56:46;6.20;99.90
262;DHT22;114;48.260;10.988;2022-10-01T02:59:30;6.10;99.90
262;DHT22;114;48.260;10.988;2022-10-01T03:01:56;6.10;99.90
262;DHT22;114;48.260;10.988;2022-10-01T03:04:22;6.10;99.90
262;DHT22;114;48.260;10.988;2022-10-01T03:06:48;6.00;99.90
262;DHT22;114;48.260;10.988;2022-10-01T03:09:14;6.00;99.90
262;DHT22;114;48.260;10.988;2022-10-01T03:11:40;6.00;99.90
262;DHT22;114;48.260;10.988;2022-10-01T03:14:10;5.90;99.90
262;DHT22;114;48.260;10.988;2022-10-01T03:16:36;5.90;99.90
262;DHT22;114;48.260;10.988;2022-10-01T03:19:01;5.90;99.90
262;DHT22;114;48.260;10.988;2022-10-01T03:21:27;5.90;99.90
262;DHT22;114;48.260;10.988;2022-10-01T03:23:54;6.10;99.90
262;DHT22;114;48.260;10.988;2022-10-01T03:26:19;6.20;99.90
262;DHT22;114;48.260;10.988;2022-10-01T03:28:45;6.40;99.90
262;DHT22;114;48.260;10.988;2022-10-01T03:31:11;6.50;99.90
262;DHT22;114;48.260;10.988;2022-10-01T03:33:37;6.50;99.90
262;DHT22;114;48.260;10.988;2022-10-01T03:36:03;6.50;99.90
262;DHT22;114;48.260;10.988;2022-10-01T03:38:30;6.40;99.90
262;DHT22;114;48.260;10.988;2022-10-01T03:40:56;6.40;99.90
262;DHT22;114;48.260;10.988;2022-10-01T03:43:22;6.30;99.90
262;DHT22;114;48.260;10.988;2022-10-01T03:45:48;6.30;99.90
262;DHT22;114;48.260;10.988;2022-10-01T03:48:13;6.30;99.90
262;DHT22;114;48.260;10.988;2022-10-01T03:50:39;6.30;99.90
262;DHT22;114;48.260;10.988;2022-10-01T03:53:05;6.40;99.90
262;DHT22;114;48.260;10.988;2022-10-01T03:55:31;6.40;99.90
262;DHT22;114;48.260;10.988;2022-10-01T03:57:57;6.50;99.90
262;DHT22;114;48.260;10.988;2022-10-01T04:00:26;6.60;99.90
262;DHT22;114;48.260;10.988;2022-10-01T04:02:52;6.70;99.90
262;DHT22;114;48.260;10.988;2022-10-01T04:05:19;6.80;99.90
262;DHT22;114;48.260;10.988;2022-10-01T04:07:44;6.80;99.90
262;DHT22;114;48.260;10.988;2022-10-01T04:10:10;6.80;99.90
262;DHT22;114;48.260;10.988;2022-10-01T04:12:37;6.80;99.90
262;DHT22;114;48.260;10.988;2022-10-01T04:15:03;6.80;99.90
262;DHT22;114;48.260;10.988;2022-10-01T04:17:29;6.80;99.90
262;DHT22;114;48.260;10.988;2022-10-01T04:19:54;6.70;99.90
262;DHT22;114;48.260;10.988;2022-10-01T04:22:22;6.70;99.90
262;DHT22;114;48.260;10.988;2022-10-01T04:24:51;6.70;99.90
262;DHT22;114;48.260;10.988;2022-10-01T04:27:18;6.70;99.90
262;DHT22;114;48.260;10.988;2022-10-01T04:29:44;6.70;99.90
262;DHT22;114;48.260;10.988;2022-10-01T04:32:10;6.70;99.90
262;DHT22;114;48.260;10.988;2022-10-01T04:34:35;6.60;99.90
262;DHT22;114;48.260;10.988;2022-10-01T04:37:22;6.70;99.90
262;DHT22;114;48.260;10.988;2022-10-01T04:39:50;6.70;99.90
262;DHT22;114;48.260;10.988;2022-10-01T04:42:16;6.70;99.90
262;DHT22;114;48.260;10.988;2022-10-01T04:44:42;6.70;99.90
262;DHT22;114;48.260;10.988;2022-10-01T04:47:08;6.70;99.90
262;DHT22;114;48.260;10.988;2022-10-01T04:49:34;6.70;99.90
262;DHT22;114;48.260;10.988;2022-10-01T04:52:02;6.70;99.90
262;DHT22;114;48.260;10.988;2022-10-01T04:54:28;6.80;99.90
262;DHT22;114;48.260;10.988;2022-10-01T04:56:54;6.80;99.90
262;DHT22;114;48.260;10.988;2022-10-01T04:59:22;6.80;99.90
262;DHT22;114;48.260;10.988;2022-10-01T05:01:48;6.80;99.90
262;DHT22;114;48.260;10.988;2022-10-01T05:04:14;6.80;99.90
262;DHT22;114;48.260;10.988;2022-10-01T05:06:40;6.80;99.90
262;DHT22;114;48.260;10.988;2022-10-01T05:09:06;6.80;99.90
262;DHT22;114;48.260;10.988;2022-10-01T05:11:32;6.90;99.90
262;DHT22;114;48.260;10.988;2022-10-01T05:13:59;6.90;99.90
262;DHT22;114;48.260;10.988;2022-10-01T05:16:26;6.90;99.90
262;DHT22;114;48.260;10.988;2022-10-01T05:18:52;7.00;99.90
262;DHT22;114;48.260;10.988;2022-10-01T05:21:20;7.10;99.90
262;DHT22;114;48.260;10.988;2022-10-01T05:23:46;7.10;99.90
262;DHT22;114;48.260;10.988;2022-10-01T05:26:12;7.20;99.90
262;DHT22;114;48.260;10.988;2022-10-01T05:28:37;7.30;99.90
262;DHT22;114;48.260;10.988;2022-10-01T05:31:09;7.30;99.90
262;DHT22;114;48.260;10.988;2022-10-01T05:33:36;7.40;99.90
262;DHT22;114;48.260;10.988;2022-10-01T05:36:04;7.50;99.90
262;DHT22;114;48.260;10.988;2022-10-01T05:38:34;7.50;99.90
262;DHT22;114;48.260;10.988;2022-10-01T05:41:04;7.60;99.90
262;DHT22;114;48.260;10.988;2022-10-01T05:43:31;7.60;99.70
262;DHT22;114;48.260;10.988;2022-10-01T05:46:01;7.70;99.80
262;DHT22;114;48.260;10.988;2022-10-01T05:48:27;7.70;99.30
262;DHT22;114;48.260;10.988;2022-10-01T05:50:54;7.80;98.60
262;DHT22;114;48.260;10.988;2022-10-01T05:53:20;7.80;98.20
262;DHT22;114;48.260;10.988;2022-10-01T05:55:46;7.80;97.80
262;DHT22;114;48.260;10.988;2022-10-01T05:58:13;7.90;97.30
262;DHT22;114;48.260;10.988;2022-10-01T06:00:40;7.90;97.20
262;DHT22;114;48.260;10.988;2022-10-01T06:03:07;8.00;96.60
262;DHT22;114;48.260;10.988;2022-10-01T06:05:34;8.10;96.20
262;DHT22;114;48.260;10.988;2022-10-01T06:08:04;8.10;95.60
262;DHT22;114;48.260;10.988;2022-10-01T06:10:30;8.20;95.50
262;DHT22;114;48.260;10.988;2022-10-01T06:12:59;8.20;95.00
262;DHT22;114;48.260;10.988;2022-10-01T06:15:26;8.30;94.40
262;DHT22;114;48.260;10.988;2022-10-01T06:17:53;8.30;94.40
262;DHT22;114;48.260;10.988;2022-10-01T06:20:19;8.40;94.40
262;DHT22;114;48.260;10.988;2022-10-01T06:22:53;8.40;94.70
262;DHT22;114;48.260;10.988;2022-10-01T06:25:19;8.50;94.50
262;DHT22;114;48.260;10.988;2022-10-01T06:27:54;8.50;94.50
262;DHT22;114;48.260;10.988;2022-10-01T06:30:26;8.60;94.50
262;DHT22;114;48.260;10.988;2022-10-01T06:32:58;8.60;94.30
262;DHT22;114;48.260;10.988;2022-10-01T06:35:23;8.70;94.10
262;DHT22;114;48.260;10.988;2022-10-01T06:37:49;8.80;94.30
262;DHT22;114;48.260;10.988;2022-10-01T06:40:15;8.80;93.10
262;DHT22;114;48.260;10.988;2022-10-01T06:42:46;8.80;92.70
262;DHT22;114;48.260;10.988;2022-10-01T06:45:12;8.90;91.80
262;DHT22;114;48.260;10.988;2022-10-01T06:47:38;9.00;90.70
262;DHT22;114;48.260;10.988;2022-10-01T06:50:04;9.00;88.50
262;DHT22;114;48.260;10.988;2022-10-01T06:52:29;9.00;88.10
262;DHT22;114;48.260;10.988;2022-10-01T06:55:20;9.10;87.60
262;DHT22;114;48.260;10.988;2022-10-01T06:57:57;9.20;83.40
262;DHT22;114;48.260;10.988;2022-10-01T07:00:25;9.30;82.80
262;DHT22;114;48.260;10.988;2022-10-01T07:02:52;9.30;81.90
262;DHT22;114;48.260;10.988;2022-10-01T07:05:19;9.40;78.60
262;DHT22;114;48.260;10.988;2022-10-01T07:07:44;9.40;74.60
262;DHT22;114;48.260;10.988;2022-10-01T07:10:11;9.50;74.50
262;DHT22;114;48.260;10.988;2022-10-01T07:12:37;9.50;73.00
262;DHT22;114;48.260;10.988;2022-10-01T07:15:04;9.50;70.20
262;DHT22;114;48.260;10.988;2022-10-01T07:17:30;9.60;69.90
262;DHT22;114;48.260;10.988;2022-10-01T07:19:56;9.60;68.40
262;DHT22;114;48.260;10.988;2022-10-01T07:22:22;9.70;66.50
262;DHT22;114;48.260;10.988;2022-10-01T07:24:49;9.70;64.10
262;DHT22;114;48.260;10.988;2022-10-01T07:27:16;9.80;63.30
262;DHT22;114;48.260;10.988;2022-10-01T07:29:42;9.80;63.30
262;DHT22;114;48.260;10.988;2022-10-01T07:32:08;9.90;61.10
262;DHT22;114;48.260;10.988;2022-10-01T07:34:38;9.90;60.50
262;DHT22;114;48.260;10.988;2022-10-01T07:37:07;9.90;61.10
262;DHT22;114;48.260;10.988;2022-10-01T07:39:36;10.00;60.10
262;DHT22;114;48.260;10.988;2022-10-01T07:42:03;10.00;60.10
262;DHT22;114;48.260;10.988;2022-10-01T07:44:28;10.10;60.30
262;DHT22;114;48.260;10.988;2022-10-01T07:46:57;10.10;59.60
262;DHT22;114;48.260;10.988;2022-10-01T07:49:23;10.10;58.70
262;DHT22;114;48.260;10.988;2022-10-01T07:51:53;10.20;56.30
262;DHT22;114;48.260;10.988;2022-10-01T07:54:20;10.20;53.70
262;DHT22;114;48.260;10.988;2022-10-01T07:56:47;10.30;51.20
262;DHT22;114;48.260;10.988;2022-10-01T07:59:14;10.30;51.20
262;DHT22;114;48.260;10.988;2022-10-01T08:01:41;10.40;50.70
262;DHT22;114;48.260;10.988;2022-10-01T08:04:06;10.40;49.50
262;DHT22;114;48.260;10.988;2022-10-01T08:06:51;10.40;48.60
262;DHT22;114;48.260;10.988;2022-10-01T08:09:18;10.50;48.00
262;DHT22;114;48.260;10.988;2022-10-01T08:11:44;10.50;45.70
262;DHT22;114;48.260;10.988;2022-10-01T08:14:11;10.60;46.60
262;DHT22;114;48.260;10.988;2022-10-01T08:16:37;10.60;46.90
262;DHT22;114;48.260;10.988;2022-10-01T08:19:06;10.60;44.30
262;DHT22;114;48.260;10.988;2022-10-01T08:21:35;10.70;44.00
262;DHT22;114;48.260;10.988;2022-10-01T08:24:02;10.70;42.10
262;DHT22;114;48.260;10.988;2022-10-01T08:26:28;10.70;44.10
262;DHT22;114;48.260;10.988;2022-10-01T08:28:54;10.80;44.40
262;DHT22;114;48.260;10.988;2022-10-01T08:31:19;10.80;41.70
262;DHT22;114;48.260;10.988;2022-10-01T08:33:45;10.80;43.00
262;DHT22;114;48.260;10.988;2022-10-01T08:36:11;10.90;39.50
262;DHT22;114;48.260;10.988;2022-10-01T08:38:37;11.00;38.70
262;DHT22;114;48.260;10.988;2022-10-01T08:43:49;11.10;37.60
262;DHT22;114;48.260;10.988;2022-10-01T08:46:18;11.30;36.50
262;DHT22;114;48.260;10.988;2022-10-01T08:48:54;11.40;26.60
262;DHT22;114;48.260;10.988;2022-10-01T08:51:31;11.50;25.80
262;DHT22;114;48.260;10.988;2022-10-01T08:54:23;11.60;23.50
262;DHT22;114;48.260;10.988;2022-10-01T08:56:55;11.60;26.10
262;DHT22;114;48.260;10.988;2022-10-01T09:02:29;11.80;20.70
262;DHT22;114;48.260;10.988;2022-10-01T09:11:36;11.80;20.70
262;DHT22;114;48.260;10.988;2022-10-01T09:20:31;11.90;19.30
262;DHT22;114;48.260;10.988;2022-10-01T09:23:25;11.60;24.60
262;DHT22;114;48.260;10.988;2022-10-01T09:25:52;11.40;24.10
262;DHT22;114;48.260;10.988;2022-10-01T09:30:59;11.30;28.80
262;DHT22;114;48.260;10.988;2022-10-01T09:33:35;11.20;29.10
262;DHT22;114;48.260;10.988;2022-10-01T09:39:25;11.00;32.50
262;DHT22;114;48.260;10.988;2022-10-01T09:41:53;11.10;32.60
262;DHT22;114;48.260;10.988;2022-10-01T09:44:28;11.10;37.50
262;DHT22;114;48.260;10.988;2022-10-01T09:46:54;11.00;39.00
262;DHT22;114;48.260;10.988;2022-10-01T09:52:13;10.90;43.50
262;DHT22;114;48.260;10.988;2022-10-01T09:57:32;10.70;47.40
262;DHT22;114;48.260;10.988;2022-10-01T10:00:07;10.50;51.10
262;DHT22;114;48.260;10.988;2022-10-01T10:02:44;10.60;48.30
262;DHT22;114;48.260;10.988;2022-10-01T10:05:17;10.60;55.00
262;DHT22;114;48.260;10.988;2022-10-01T10:07:53;10.60;57.40
262;DHT22;114;48.260;10.988;2022-10-01T10:10:26;10.50;55.70
262;DHT22;114;48.260;10.988;2022-10-01T10:12:59;10.60;56.30
262;DHT22;114;48.260;10.988;2022-10-01T10:15:27;10.50;60.00
262;DHT22;114;48.260;10.988;2022-10-01T10:18:05;10.50;60.60
262;DHT22;114;48.260;10.988;2022-10-01T10:20:37;10.50;63.10
262;DHT22;114;48.260;10.988;2022-10-01T10:23:15;10.40;67.00
262;DHT22;114;48.260;10.988;2022-10-01T10:25:42;10.40;65.10
262;DHT22;114;48.260;10.988;2022-10-01T10:28:22;10.40;63.30
262;DHT22;114;48.260;10.988;2022-10-01T10:30:53;10.30;65.40
262;DHT22;114;48.260;10.988;2022-10-01T10:33:20;10.30;66.80
262;DHT22;114;48.260;10.988;2022-10-01T10:36:02;10.30;67.00
262;DHT22;114;48.260;10.988;2022-10-01T10:38:32;10.30;67.80
262;DHT22;114;48.260;10.988;2022-10-01T10:40:59;10.30;69.80
262;DHT22;114;48.260;10.988;2022-10-01T10:43:29;10.30;69.20
262;DHT22;114;48.260;10.988;2022-10-01T10:46:00;10.30;71.80
262;DHT22;114;48.260;10.988;2022-10-01T10:48:37;10.30;68.70
262;DHT22;114;48.260;10.988;2022-10-01T10:51:04;10.30;69.00
262;DHT22;114;48.260;10.988;2022-10-01T10:53:50;10.30;67.50
262;DHT22;114;48.260;10.988;2022-10-01T10:56:22;10.30;66.20
262;DHT22;114;48.260;10.988;2022-10-01T10:58:50;10.30;67.80
262;DHT22;114;48.260;10.988;2022-10-01T11:01:27;10.30;69.00
262;DHT22;114;48.260;10.988;2022-10-01T11:03:58;10.20;73.00
262;DHT22;114;48.260;10.988;2022-10-01T11:06:25;10.20;74.30
262;DHT22;114;48.260;10.988;2022-10-01T11:08:59;10.20;75.00
262;DHT22;114;48.260;10.988;2022-10-01T11:11:52;10.20;79.20
262;DHT22;114;48.260;10.988;2022-10-01T11:25:36;10.30;78.50
262;DHT22;114;48.260;10.988;2022-10-01T11:34:12;10.30;82.00
262;DHT22;114;48.260;10.988;2022-10-01T11:39:13;10.30;75.80
262;DHT22;114;48.260;10.988;2022-10-01T11:41:57;10.30;75.30
262;DHT22;114;48.260;10.988;2022-10-01T11:44:34;10.40;76.30
262;DHT22;114;48.260;10.988;2022-10-01T11:47:29;10.30;78.90
262;DHT22;114;48.260;10.988;2022-10-01T11:49:59;10.40;75.10
262;DHT22;114;48.260;10.988;2022-10-01T11:52:43;10.30;76.40
262;DHT22;114;48.260;10.988;2022-10-01T12:06:23;10.10;90.30
262;DHT22;114;48.260;10.988;2022-10-01T12:12:01;10.10;90.90
262;DHT22;114;48.260;10.988;2022-10-01T12:14:47;10.20;90.30
262;DHT22;114;48.260;10.988;2022-10-01T12:17:22;10.20;90.30
262;DHT22;114;48.260;10.988;2022-10-01T12:19:53;10.20;90.60
262;DHT22;114;48.260;10.988;2022-10-01T12:22:34;10.30;90.90
262;DHT22;114;48.260;10.988;2022-10-01T12:25:01;10.20;88.60
262;DHT22;114;48.260;10.988;2022-10-01T12:27:51;10.30;87.50
262;DHT22;114;48.260;10.988;2022-10-01T12:30:23;10.30;88.40
262;DHT22;114;48.260;10.988;2022-10-01T12:33:00;10.40;83.50
262;DHT22;114;48.260;10.988;2022-10-01T12:46:43;10.50;82.60
262;DHT22;114;48.260;10.988;2022-10-01T12:54:42;10.50;80.60
262;DHT22;114;48.260;10.988;2022-10-01T13:00:03;10.50;78.00
262;DHT22;114;48.260;10.988;2022-10-01T13:08:07;10.60;79.60
262;DHT22;114;48.260;10.988;2022-10-01T13:13:27;10.60;79.30
262;DHT22;114;48.260;10.988;2022-10-01T13:21:25;10.60;79.40
262;DHT22;114;48.260;10.988;2022-10-01T13:27:00;10.80;78.60
262;DHT22;114;48.260;10.988;2022-10-01T13:32:02;10.70;76.10
262;DHT22;114;48.260;10.988;2022-10-01T13:34:37;10.70;76.30
262;DHT22;114;48.260;10.988;2022-10-01T13:37:16;10.70;74.20
262;DHT22;114;48.260;10.988;2022-10-01T13:39:44;10.80;74.90
262;DHT22;114;48.260;10.988;2022-10-01T13:42:17;10.90;68.40
262;DHT22;114;48.260;10.988;2022-10-01T13:44:58;10.90;72.40
262;DHT22;114;48.260;10.988;2022-10-01T13:47:25;10.90;72.10
262;DHT22;114;48.260;10.988;2022-10-01T13:49:58;11.00;70.40
262;DHT22;114;48.260;10.988;2022-10-01T13:52:25;11.10;67.60
262;DHT22;114;48.260;10.988;2022-10-01T13:54:55;11.10;67.30
262;DHT22;114;48.260;10.988;2022-10-01T13:59:58;11.30;65.40
262;DHT22;114;48.260;10.988;2022-10-01T14:02:33;11.30;62.80
262;DHT22;114;48.260;10.988;2022-10-01T14:07:54;11.40;56.80
262;DHT22;114;48.260;10.988;2022-10-01T14:10:22;11.40;58.20
262;DHT22;114;48.260;10.988;2022-10-01T14:12:54;11.50;57.40
262;DHT22;114;48.260;10.988;2022-10-01T14:15:42;11.50;58.40
262;DHT22;114;48.260;10.988;2022-10-01T14:18:35;11.50;61.60
262;DHT22;114;48.260;10.988;2022-10-01T14:21:35;11.60;60.40
262;DHT22;114;48.260;10.988;2022-10-01T14:24:31;11.50;60.80
262;DHT22;114;48.260;10.988;2022-10-01T14:28:00;11.60;60.50
262;DHT22;114;48.260;10.988;2022-10-01T14:30:29;11.50;57.50
262;DHT22;114;48.260;10.988;2022-10-01T14:38:20;11.80;53.60
262;DHT22;114;48.260;10.988;2022-10-01T14:40:47;11.80;52.70
262;DHT22;114;48.260;10.988;2022-10-01T14:43:22;11.80;55.30
262;DHT22;114;48.260;10.988;2022-10-01T14:46:04;11.70;55.80
262;DHT22;114;48.260;10.988;2022-10-01T14:48:33;11.70;54.70
262;DHT22;114;48.260;10.988;2022-10-01T14:51:01;11.80;54.50
262;DHT22;114;48.260;10.988;2022-10-01T14:53:31;11.70;56.10
262;DHT22;114;48.260;10.988;2022-10-01T14:56:15;11.70;57.00
262;DHT22;114;48.260;10.988;2022-10-01T14:58:46;11.70;56.40
262;DHT22;114;48.260;10.988;2022-10-01T15:01:18;11.60;57.70
262;DHT22;114;48.260;10.988;2022-10-01T15:03:45;11.60;58.00
262;DHT22;114;48.260;10.988;2022-10-01T15:06:14;11.60;58.60
262;DHT22;114;48.260;10.988;2022-10-01T15:08:43;11.60;60.10
262;DHT22;114;48.260;10.988;2022-10-01T15:11:29;11.60;59.20
262;DHT22;114;48.260;10.988;2022-10-01T15:14:02;11.60;58.70
262;DHT22;114;48.260;10.988;2022-10-01T15:16:29;11.60;60.70
262;DHT22;114;48.260;10.988;2022-10-01T15:19:06;11.50;61.00
262;DHT22;114;48.260;10.988;2022-10-01T15:21:36;11.60;61.70
262;DHT22;114;48.260;10.988;2022-10-01T15:24:05;11.50;60.50
262;DHT22;114;48.260;10.988;2022-10-01T15:26:31;11.60;61.70
262;DHT22;114;48.260;10.988;2022-10-01T15:29:03;11.50;62.50
262;DHT22;114;48.260;10.988;2022-10-01T15:31:29;11.50;63.00
262;DHT22;114;48.260;10.988;2022-10-01T15:33:55;11.50;64.20
262;DHT22;114;48.260;10.988;2022-10-01T15:36:24;11.50;63.60
262;DHT22;114;48.260;10.988;2022-10-01T15:38:50;11.50;65.00
262;DHT22;114;48.260;10.988;2022-10-01T15:41:29;11.50;66.00
262;DHT22;114;48.260;10.988;2022-10-01T15:43:58;11.50;66.50
262;DHT22;114;48.260;10.988;2022-10-01T15:46:26;11.40;67.10
262;DHT22;114;48.260;10.988;2022-10-01T15:49:15;11.50;67.10
262;DHT22;114;48.260;10.988;2022-10-01T15:54:33;11.40;68.70
262;DHT22;114;48.260;10.988;2022-10-01T15:57:01;11.40;70.30
262;DHT22;114;48.260;10.988;2022-10-01T15:59:27;11.40;70.70
262;DHT22;114;48.260;10.988;2022-10-01T16:01:53;11.40;69.70
262;DHT22;114;48.260;10.988;2022-10-01T16:04:20;11.40;70.80
262;DHT22;114;48.260;10.988;2022-10-01T16:06:50;11.50;71.40
262;DHT22;114;48.260;10.988;2022-10-01T16:09:19;11.40;72.40
262;DHT22;114;48.260;10.988;2022-10-01T16:12:01;11.40;71.50
262;DHT22;114;48.260;10.988;2022-10-01T16:14:36;11.40;72.10
262;DHT22;114;48.260;10.988;2022-10-01T16:19:43;11.40;71.00
262;DHT22;114;48.260;10.988;2022-10-01T16:22:20;11.50;72.20
262;DHT22;114;48.260;10.988;2022-10-01T16:24:48;11.40;72.30
262;DHT22;114;48.260;10.988;2022-10-01T16:27:17;11.40;71.40
262;DHT22;114;48.260;10.988;2022-10-01T16:32:22;11.40;71.60
262;DHT22;114;48.260;10.988;2022-10-01T16:34:48;11.50;71.00
262;DHT22;114;48.260;10.988;2022-10-01T16:37:15;11.50;70.90
262;DHT22;114;48.260;10.988;2022-10-01T16:39:41;11.50;70.00
262;DHT22;114;48.260;10.988;2022-10-01T16:42:19;11.50;70.60
262;DHT22;114;48.260;10.988;2022-10-01T16:44:47;11.60;70.30
262;DHT22;114;48.260;10.988;2022-10-01T16:47:13;11.60;71.00
262;DHT22;114;48.260;10.988;2022-10-01T16:49:39;11.60;68.90
262;DHT22;114;48.260;10.988;2022-10-01T16:52:05;11.60;67.50
262;DHT22;114;48.260;10.988;2022-10-01T16:54:31;11.70;69.40
262;DHT22;114;48.260;10.988;2022-10-01T16:56:57;11.60;68.10
262;DHT22;114;48.260;10.988;2022-10-01T16:59:24;11.60;69.60
262;DHT22;114;48.260;10.988;2022-10-01T17:01:53;11.60;70.30
262;DHT22;114;48.260;10.988;2022-10-01T17:04:23;11.60;69.10
262;DHT22;114;48.260;10.988;2022-10-01T17:06:50;11.60;67.80
262;DHT22;114;48.260;10.988;2022-10-01T17:09:18;11.60;69.10
262;DHT22;114;48.260;10.988;2022-10-01T17:11:44;11.60;70.60
262;DHT22;114;48.260;10.988;2022-10-01T17:14:16;11.60;71.10
262;DHT22;114;48.260;10.988;2022-10-01T17:16:43;11.60;69.20
262;DHT22;114;48.260;10.988;2022-10-01T17:19:10;11.60;70.20
262;DHT22;114;48.260;10.988;2022-10-01T17:21:37;11.60;70.00
262;DHT22;114;48.260;10.988;2022-10-01T17:24:03;11.60;70.50
262;DHT22;114;48.260;10.988;2022-10-01T17:26:30;11.60;71.50
262;DHT22;114;48.260;10.988;2022-10-01T17:28:58;11.60;71.20
262;DHT22;114;48.260;10.988;2022-10-01T17:31:24;11.60;70.00
262;DHT22;114;48.260;10.988;2022-10-01T17:33:52;11.50;70.50
262;DHT22;114;48.260;10.988;2022-10-01T17:36:17;11.60;71.00
262;DHT22;114;48.260;10.988;2022-10-01T17:38:43;11.60;71.10
262;DHT22;114;48.260;10.988;2022-10-01T17:41:10;11.60;71.10
262;DHT22;114;48.260;10.988;2022-10-01T17:43:36;11.60;70.30
262;DHT22;114;48.260;10.988;2022-10-01T17:46:03;11.60;71.10
262;DHT22;114;48.260;10.988;2022-10-01T17:48:29;11.60;71.10
262;DHT22;114;48.260;10.988;2022-10-01T17:51:03;11.60;71.10
262;DHT22;114;48.260;10.988;2022-10-01T17:53:31;11.60;72.60
262;DHT22;114;48.260;10.988;2022-10-01T17:55:57;11.60;71.00
262;DHT22;114;48.260;10.988;2022-10-01T17:58:26;11.70;71.10
262;DHT22;114;48.260;10.988;2022-10-01T18:00:52;11.60;71.90
262;DHT22;114;48.260;10.988;2022-10-01T18:03:18;11.60;71.10
262;DHT22;114;48.260;10.988;2022-10-01T18:05:44;11.60;71.30
262;DHT22;114;48.260;10.988;2022-10-01T18:08:10;11.70;71.10
262;DHT22;114;48.260;10.988;2022-10-01T18:10:36;11.70;71.10
262;DHT22;114;48.260;10.988;2022-10-01T18:13:02;11.70;71.10
262;DHT22;114;48.260;10.988;2022-10-01T18:15:28;11.70;71.40
262;DHT22;114;48.260;10.988;2022-10-01T18:17:54;11.70;70.90
262;DHT22;114;48.260;10.988;2022-10-01T18:20:20;11.70;71.10
262;DHT22;114;48.260;10.988;2022-10-01T18:22:46;11.70;72.50
262;DHT22;114;48.260;10.988;2022-10-01T18:25:14;11.60;73.20
262;DHT22;114;48.260;10.988;2022-10-01T18:27:41;11.70;73.30
262;DHT22;114;48.260;10.988;2022-10-01T18:30:08;11.60;74.40
262;DHT22;114;48.260;10.988;2022-10-01T18:32:50;11.60;74.80
262;DHT22;114;48.260;10.988;2022-10-01T18:35:28;11.60;74.00
262;DHT22;114;48.260;10.988;2022-10-01T18:38:00;11.70;73.00
262;DHT22;114;48.260;10.988;2022-10-01T18:40:42;11.70;73.30
262;DHT22;114;48.260;10.988;2022-10-01T18:43:13;11.70;74.50
262;DHT22;114;48.260;10.988;2022-10-01T19:00:11;11.70;75.30
262;DHT22;114;48.260;10.988;2022-10-01T19:02:48;11.70;75.70
262;DHT22;114;48.260;10.988;2022-10-01T19:21:52;11.70;79.80
262;DHT22;114;48.260;10.988;2022-10-01T19:27:09;11.70;78.80
262;DHT22;114;48.260;10.988;2022-10-01T19:30:03;11.60;79.90
262;DHT22;114;48.260;10.988;2022-10-01T19:35:39;11.60;80.20
262;DHT22;114;48.260;10.988;2022-10-01T19:38:41;11.70;81.90
262;DHT22;114;48.260;10.988;2022-10-01T19:41:30;11.70;81.00
262;DHT22;114;48.260;10.988;2022-10-01T19:44:24;11.60;81.90
262;DHT22;114;48.260;10.988;2022-10-01T19:46:48;11.70;80.30